createdAt,value
2017-11-12T00:00:06.964Z,66.84
2017-11-12T00:02:35.346Z,66.76
2017-11-12T00:05:03.717Z,66.75
2017-11-12T00:07:32.068Z,66.78
2017-11-12T00:10:00.440Z,66.74
2017-11-12T00:12:28.799Z,66.74
2017-11-12T00:14:57.165Z,66.74
2017-11-12T00:17:25.534Z,66.71
2017-11-12T00:19:53.910Z,66.71
2017-11-12T00:22:22.278Z,66.71
2017-11-12T00:24:50.645Z,66.69
2017-11-12T00:27:19.772Z,66.68
2017-11-12T00:29:48.133Z,66.76
2017-11-12T00:32:16.486Z,66.79
2017-11-12T00:34:45.615Z,66.87
2017-11-12T00:37:13.984Z,66.87
2017-11-12T00:39:42.356Z,66.86
2017-11-12T00:42:10.717Z,66.86
2017-11-12T00:44:39.856Z,66.89
2017-11-12T00:47:08.220Z,66.91
2017-11-12T00:49:36.589Z,66.91
2017-11-12T00:52:05.716Z,66.92
2017-11-12T00:54:34.079Z,66.98
2017-11-12T00:57:02.446Z,66.92
2017-11-12T00:59:30.814Z,66.91
2017-11-12T01:01:59.953Z,66.94
2017-11-12T01:04:28.316Z,66.98
2017-11-12T01:06:56.685Z,66.94
2017-11-12T01:09:25.044Z,66.92
2017-11-12T01:11:54.178Z,66.97
2017-11-12T01:14:22.544Z,66.93
2017-11-12T01:16:50.915Z,66.86
2017-11-12T01:19:19.268Z,66.87
2017-11-12T01:21:48.828Z,66.89
2017-11-12T01:24:17.380Z,66.85
2017-11-12T01:26:46.507Z,66.80
2017-11-12T01:29:14.868Z,66.80
2017-11-12T01:31:43.237Z,66.77
2017-11-12T01:34:11.599Z,66.77
2017-11-12T01:36:40.723Z,66.78
2017-11-12T01:39:09.086Z,66.78
2017-11-12T01:41:38.218Z,66.78
2017-11-12T01:44:06.581Z,66.73
2017-11-12T01:46:34.950Z,66.64
2017-11-12T01:49:03.306Z,66.59
2017-11-12T01:51:32.439Z,66.66
2017-11-12T01:54:00.805Z,66.66
2017-11-12T01:56:29.165Z,66.74
2017-11-12T01:58:58.299Z,66.74
2017-11-12T02:01:26.665Z,66.72
2017-11-12T02:03:55.042Z,66.63
2017-11-12T02:06:23.408Z,66.65
2017-11-12T02:08:52.555Z,66.58
2017-11-12T02:11:20.928Z,66.64
2017-11-12T02:13:49.295Z,66.67
2017-11-12T02:16:17.667Z,66.78
2017-11-12T02:18:46.040Z,66.77
2017-11-12T02:21:14.413Z,66.76
2017-11-12T02:23:42.786Z,66.67
2017-11-12T02:26:11.163Z,66.68
2017-11-12T02:28:39.524Z,66.77
2017-11-12T02:31:08.651Z,66.76
2017-11-12T02:33:37.014Z,66.78
2017-11-12T02:36:06.147Z,66.85
2017-11-12T02:38:34.521Z,66.92
2017-11-12T02:41:02.888Z,66.96
2017-11-12T02:43:31.281Z,67.01
2017-11-12T02:45:59.640Z,67.11
2017-11-12T02:48:28.013Z,67.15
2017-11-12T02:50:56.396Z,67.13
2017-11-12T02:53:24.790Z,67.18
2017-11-12T02:55:53.164Z,67.16
2017-11-12T02:58:21.532Z,67.16
2017-11-12T03:00:49.901Z,67.20
2017-11-12T03:03:19.046Z,67.21
2017-11-12T03:05:47.416Z,67.19
2017-11-12T03:08:15.785Z,67.22
2017-11-12T03:10:44.140Z,67.33
2017-11-12T03:13:13.264Z,67.34
2017-11-12T03:15:41.631Z,67.36
2017-11-12T03:18:09.997Z,67.35
2017-11-12T03:20:38.373Z,67.42
2017-11-12T03:23:06.741Z,67.47
2017-11-12T03:25:35.883Z,67.52
2017-11-12T03:28:04.245Z,67.54
2017-11-12T03:30:32.608Z,67.52
2017-11-12T03:33:00.976Z,67.57
2017-11-12T03:35:30.107Z,67.57
2017-11-12T03:37:58.458Z,67.58
2017-11-12T03:40:27.592Z,67.67
2017-11-12T03:42:55.951Z,67.71
2017-11-12T03:45:24.316Z,67.63
2017-11-12T03:47:52.697Z,67.61
2017-11-12T03:50:21.066Z,67.63
2017-11-12T03:52:50.200Z,67.62
2017-11-12T03:55:18.564Z,67.58
2017-11-12T03:57:46.935Z,67.49
2017-11-12T04:00:15.304Z,67.46
2017-11-12T04:02:44.441Z,67.44
2017-11-12T04:05:12.814Z,67.47
2017-11-12T04:07:41.171Z,67.49
2017-11-12T04:10:09.545Z,67.44
2017-11-12T04:12:37.922Z,67.48
2017-11-12T04:15:06.292Z,67.51
2017-11-12T04:17:35.427Z,67.56
2017-11-12T04:20:03.793Z,67.58
2017-11-12T04:22:32.161Z,67.61
2017-11-12T04:25:00.531Z,67.63
2017-11-12T04:27:28.904Z,67.60
2017-11-12T04:29:58.039Z,67.59
2017-11-12T04:32:26.434Z,67.66
2017-11-12T04:34:54.783Z,67.63
2017-11-12T04:37:23.153Z,67.64
2017-11-12T04:39:51.529Z,67.64
2017-11-12T04:42:19.897Z,67.66
2017-11-12T04:44:49.035Z,67.73
2017-11-12T04:47:17.390Z,67.67
2017-11-12T04:49:45.763Z,67.70
2017-11-12T04:52:14.140Z,67.70
2017-11-12T04:54:43.276Z,67.62
2017-11-12T04:57:11.647Z,67.60
2017-11-12T04:59:40.044Z,67.61
2017-11-12T05:02:08.415Z,67.62
2017-11-12T05:04:36.789Z,67.60
2017-11-12T05:07:05.157Z,67.57
2017-11-12T05:09:33.524Z,67.62
2017-11-12T05:12:01.890Z,67.62
2017-11-12T05:14:31.016Z,67.65
2017-11-12T05:16:59.375Z,67.61
2017-11-12T05:19:27.749Z,67.56
2017-11-12T05:21:56.129Z,67.58
2017-11-12T05:24:24.501Z,67.58
2017-11-12T05:26:53.650Z,67.64
2017-11-12T05:29:22.030Z,67.70
2017-11-12T05:31:50.399Z,67.66
2017-11-12T05:34:18.772Z,67.63
2017-11-12T05:36:47.141Z,67.67
2017-11-12T05:39:15.528Z,67.66
2017-11-12T05:41:43.906Z,67.65
2017-11-12T05:44:12.273Z,67.65
2017-11-12T05:46:40.639Z,67.63
2017-11-12T05:49:09.024Z,67.68
2017-11-12T05:51:37.398Z,67.74
2017-11-12T05:54:05.761Z,67.81
2017-11-12T05:56:34.892Z,67.89
2017-11-12T05:59:03.265Z,67.92
2017-11-12T06:01:31.632Z,67.91
2017-11-12T06:04:00.005Z,67.96
2017-11-12T06:06:28.383Z,67.96
2017-11-12T06:08:57.524Z,67.99
2017-11-12T06:11:25.895Z,68.00
2017-11-12T06:13:54.266Z,68.00
2017-11-12T06:16:22.621Z,68.01
2017-11-12T06:18:50.989Z,68.01
2017-11-12T06:21:20.124Z,68.00
2017-11-12T06:23:48.487Z,68.01
2017-11-12T06:26:16.851Z,67.98
2017-11-12T06:28:45.988Z,68.02
2017-11-12T06:31:14.360Z,68.00
2017-11-12T06:33:42.723Z,67.92
2017-11-12T06:36:11.101Z,67.89
2017-11-12T06:38:39.471Z,67.90
2017-11-12T06:41:07.841Z,67.88
2017-11-12T06:43:36.980Z,67.84
2017-11-12T06:46:05.357Z,67.84
2017-11-12T06:48:33.728Z,67.83
2017-11-12T06:51:02.087Z,67.85
2017-11-12T06:53:30.450Z,67.85
2017-11-12T06:55:59.588Z,67.82
2017-11-12T06:58:27.954Z,67.71
2017-11-12T07:00:56.323Z,67.59
2017-11-12T07:03:24.693Z,67.54
2017-11-12T07:05:53.054Z,67.46
2017-11-12T07:08:22.193Z,67.37
2017-11-12T07:10:50.558Z,67.30
2017-11-12T07:13:18.929Z,67.22
2017-11-12T07:15:47.310Z,67.17
2017-11-12T07:18:15.682Z,67.11
2017-11-12T07:20:44.821Z,67.08
2017-11-12T07:23:13.181Z,66.96
2017-11-12T07:25:41.546Z,66.72
2017-11-12T07:28:09.916Z,66.53
2017-11-12T07:30:39.053Z,66.31
2017-11-12T07:33:07.411Z,66.09
2017-11-12T07:35:35.776Z,65.94
2017-11-12T07:38:04.911Z,65.73
2017-11-12T07:40:33.273Z,65.57
2017-11-12T07:43:01.648Z,65.35
2017-11-12T07:45:30.020Z,65.09
2017-11-12T07:47:58.397Z,64.76
2017-11-12T07:50:26.790Z,64.53
2017-11-12T07:52:55.159Z,64.32
2017-11-12T07:55:23.532Z,64.13
2017-11-12T07:57:51.905Z,64.00
2017-11-12T08:00:20.284Z,63.92
2017-11-12T08:02:48.655Z,63.79
2017-11-12T08:05:17.792Z,63.69
2017-11-12T08:07:46.167Z,63.63
2017-11-12T08:10:14.541Z,63.36
2017-11-12T08:12:42.907Z,63.31
2017-11-12T08:15:11.277Z,63.11
2017-11-12T08:17:40.419Z,62.84
2017-11-12T08:20:08.801Z,62.68
2017-11-12T08:22:37.172Z,62.51
2017-11-12T08:25:05.546Z,62.38
2017-11-12T08:27:33.915Z,62.21
2017-11-12T08:30:02.276Z,62.02
2017-11-12T08:32:30.671Z,61.81
2017-11-12T08:34:59.032Z,61.58
2017-11-12T08:37:27.414Z,61.41
2017-11-12T08:39:55.789Z,61.28
2017-11-12T08:42:24.161Z,61.20
2017-11-12T08:44:53.295Z,61.06
2017-11-12T08:47:21.665Z,60.74
2017-11-12T08:49:50.027Z,60.56
2017-11-12T08:52:18.390Z,60.39
2017-11-12T08:54:47.524Z,60.02
2017-11-12T08:57:15.888Z,59.85
2017-11-12T08:59:44.264Z,59.52
2017-11-12T09:02:12.631Z,59.41
2017-11-12T09:04:41.776Z,59.35
2017-11-12T09:07:10.149Z,58.96
2017-11-12T09:09:38.522Z,58.98
2017-11-12T09:12:06.896Z,58.81
2017-11-12T09:14:35.258Z,58.75
2017-11-12T09:17:03.631Z,58.64
2017-11-12T09:19:32.001Z,58.55
2017-11-12T09:22:01.132Z,58.53
2017-11-12T09:24:29.492Z,58.53
2017-11-12T09:26:57.860Z,58.35
2017-11-12T09:29:26.232Z,58.23
2017-11-12T09:31:55.372Z,58.30
2017-11-12T09:34:23.744Z,58.36
2017-11-12T09:36:52.108Z,58.28
2017-11-12T09:39:20.478Z,58.34
2017-11-12T09:41:48.844Z,58.59
2017-11-12T09:44:17.978Z,58.46
2017-11-12T09:46:46.345Z,58.53
2017-11-12T09:49:14.709Z,58.47
2017-11-12T09:51:43.096Z,58.62
2017-11-12T09:54:11.465Z,58.43
2017-11-12T09:56:39.832Z,58.37
2017-11-12T09:59:08.981Z,58.31
2017-11-12T10:01:37.352Z,58.24
2017-11-12T10:04:05.721Z,58.26
2017-11-12T10:06:34.088Z,58.20
2017-11-12T10:09:02.472Z,58.13
2017-11-12T10:11:30.839Z,58.08
2017-11-12T10:13:59.200Z,57.96
2017-11-12T10:16:29.159Z,57.94
2017-11-12T10:18:57.524Z,57.69
2017-11-12T10:21:25.896Z,57.64
2017-11-12T10:23:54.269Z,57.62
2017-11-12T10:26:22.632Z,57.66
2017-11-12T10:28:51.767Z,57.60
2017-11-12T10:31:20.131Z,57.60
2017-11-12T10:33:48.517Z,57.20
2017-11-12T10:36:16.885Z,57.08
2017-11-12T10:38:45.259Z,57.28
2017-11-12T10:41:13.641Z,57.23
2017-11-12T10:43:42.006Z,57.03
2017-11-12T10:46:11.142Z,57.12
2017-11-12T10:48:39.541Z,57.04
2017-11-12T10:51:07.920Z,56.91
2017-11-12T10:53:36.308Z,56.89
2017-11-12T10:56:04.680Z,56.99
2017-11-12T10:58:33.052Z,56.98
2017-11-12T11:01:01.419Z,56.92
2017-11-12T11:03:29.793Z,56.91
2017-11-12T11:05:58.161Z,56.68
2017-11-12T11:08:26.536Z,56.53
2017-11-12T11:10:54.910Z,56.53
2017-11-12T11:13:23.283Z,56.41
2017-11-12T11:15:52.420Z,56.33
2017-11-12T11:18:20.791Z,56.35
2017-11-12T11:20:49.199Z,56.45
2017-11-12T11:23:17.564Z,56.64
2017-11-12T11:25:46.695Z,56.68
2017-11-12T11:28:15.832Z,56.74
2017-11-12T11:30:44.201Z,56.91
2017-11-12T11:33:12.567Z,57.00
2017-11-12T11:35:41.710Z,57.01
2017-11-12T11:38:10.848Z,57.18
2017-11-12T11:40:40.793Z,57.46
2017-11-12T11:43:09.163Z,57.47
2017-11-12T11:45:37.537Z,57.51
2017-11-12T11:48:06.669Z,57.45
2017-11-12T11:50:35.026Z,57.39
2017-11-12T11:53:03.395Z,57.53
2017-11-12T11:55:32.534Z,57.44
2017-11-12T11:58:00.904Z,57.39
2017-11-12T12:00:29.279Z,57.43
2017-11-12T12:02:57.661Z,57.02
2017-11-12T12:05:26.024Z,56.92
2017-11-12T12:07:54.416Z,57.02
2017-11-12T12:10:22.791Z,57.13
2017-11-12T12:12:51.151Z,57.26
2017-11-12T12:15:19.511Z,57.26
2017-11-12T12:17:48.646Z,57.49
2017-11-12T12:20:17.009Z,57.52
2017-11-12T12:22:45.389Z,57.56
2017-11-12T12:25:13.760Z,57.67
2017-11-12T12:27:42.119Z,57.51
2017-11-12T12:30:10.491Z,57.48
2017-11-12T12:32:38.869Z,57.69
2017-11-12T12:35:07.248Z,57.68
2017-11-12T12:37:35.641Z,57.81
2017-11-12T12:40:04.775Z,57.70
2017-11-12T12:42:33.165Z,57.63
2017-11-12T12:45:01.535Z,57.37
2017-11-12T12:47:29.906Z,57.28
2017-11-12T12:49:58.268Z,57.24
2017-11-12T12:52:28.027Z,57.57
2017-11-12T12:54:56.408Z,57.85
2017-11-12T12:57:24.776Z,57.84
2017-11-12T12:59:53.147Z,57.80
2017-11-12T13:02:21.513Z,57.65
2017-11-12T13:04:49.879Z,57.66
2017-11-12T13:07:18.264Z,57.82
2017-11-12T13:09:46.630Z,58.04
2017-11-12T13:12:15.770Z,58.26
2017-11-12T13:14:44.137Z,58.27
2017-11-12T13:17:12.509Z,58.34
2017-11-12T13:19:40.876Z,58.37
2017-11-12T13:22:09.254Z,58.28
2017-11-12T13:24:37.640Z,59.72
2017-11-12T13:27:06.015Z,59.20
2017-11-12T13:29:34.388Z,58.97
2017-11-12T13:32:02.764Z,58.93
2017-11-12T13:34:31.144Z,58.72
2017-11-12T13:36:59.508Z,58.58
2017-11-12T13:39:28.642Z,58.49
2017-11-12T13:41:56.999Z,58.62
2017-11-12T13:44:26.135Z,58.85
2017-11-12T13:46:54.517Z,59.05
2017-11-12T13:49:22.890Z,59.22
2017-11-12T13:51:51.269Z,59.41
2017-11-12T13:54:19.642Z,59.65
2017-11-12T13:56:48.003Z,59.76
2017-11-12T13:59:16.374Z,59.77
2017-11-12T14:01:44.799Z,59.88
2017-11-12T14:04:13.171Z,59.81
2017-11-12T14:06:41.536Z,59.87
2017-11-12T15:00:00.419Z,66.90
2017-11-12T15:02:28.780Z,78.35
2017-11-12T15:04:57.904Z,76.82
2017-11-12T15:07:26.267Z,71.02
2017-11-12T15:09:55.401Z,77.64
2017-11-12T15:12:23.764Z,77.63
2017-11-12T15:14:52.125Z,77.19
2017-11-12T15:17:21.252Z,78.35
2017-11-12T15:19:49.634Z,76.99
2017-11-12T15:22:18.087Z,77.94
2017-11-12T15:24:46.449Z,78.21
2017-11-12T15:27:15.577Z,79.15
2017-11-12T15:29:43.949Z,79.97
2017-11-12T15:32:12.318Z,79.98
2017-11-12T15:34:40.696Z,80.08
2017-11-12T15:37:09.055Z,80.13
2017-11-12T15:39:37.431Z,80.15
2017-11-12T15:42:06.568Z,80.28
2017-11-12T15:44:34.937Z,80.61
2017-11-12T15:47:03.304Z,80.91
2017-11-12T15:49:32.541Z,80.48
2017-11-12T15:52:00.928Z,80.69
2017-11-12T15:54:29.308Z,80.77
2017-11-12T15:56:57.675Z,80.63
2017-11-12T15:59:26.064Z,80.63
2017-11-12T16:01:54.428Z,81.21
2017-11-12T16:04:22.797Z,80.99
2017-11-12T16:06:51.175Z,81.21
2017-11-12T16:09:19.543Z,81.16
2017-11-12T16:11:47.911Z,81.58
2017-11-12T16:14:17.045Z,81.31
2017-11-12T16:16:45.413Z,81.68
2017-11-12T16:19:13.784Z,81.57
2017-11-12T16:21:42.269Z,81.67
2017-11-12T16:24:10.636Z,81.08
2017-11-12T16:26:39.776Z,81.75
2017-11-12T16:29:08.140Z,81.12
2017-11-12T16:31:36.499Z,81.71
2017-11-12T16:34:04.874Z,82.47
2017-11-12T16:36:33.253Z,81.98
2017-11-12T16:39:01.647Z,81.82
2017-11-12T16:41:30.017Z,81.65
2017-11-12T16:43:58.388Z,81.47
2017-11-12T16:46:26.749Z,81.58
2017-11-12T16:48:55.882Z,81.53
2017-11-12T16:51:24.249Z,81.53
2017-11-12T16:53:52.622Z,81.46
2017-11-12T16:56:21.755Z,81.56
2017-11-12T16:58:50.107Z,81.60
2017-11-12T17:01:18.471Z,81.44
2017-11-12T17:03:47.609Z,81.80
2017-11-12T17:06:15.964Z,81.58
2017-11-12T17:08:44.330Z,82.30
2017-11-12T17:11:12.715Z,81.65
2017-11-12T17:13:41.092Z,81.88
2017-11-12T17:16:09.460Z,81.79
2017-11-12T17:18:38.605Z,81.64
2017-11-12T17:21:06.971Z,82.22
2017-11-12T17:23:35.328Z,82.37
2017-11-12T17:26:03.689Z,81.89
2017-11-12T17:28:32.912Z,82.42
2017-11-12T17:31:01.310Z,81.96
2017-11-12T17:33:29.676Z,82.08
2017-11-12T17:35:58.045Z,82.48
2017-11-12T17:38:26.417Z,82.24
2017-11-12T17:40:54.782Z,82.52
2017-11-12T17:43:23.926Z,82.43
2017-11-12T17:45:52.298Z,82.52
2017-11-12T17:48:20.763Z,82.50
2017-11-12T17:50:49.163Z,82.50
2017-11-12T17:53:17.551Z,82.35
2017-11-12T17:55:45.924Z,82.51
2017-11-12T17:58:14.314Z,82.61
2017-11-12T18:00:42.686Z,83.00
2017-11-12T18:03:11.061Z,83.33
2017-11-12T18:05:39.680Z,83.11
2017-11-12T18:08:08.047Z,83.38
2017-11-12T18:10:36.416Z,83.54
2017-11-12T18:13:04.819Z,84.13
2017-11-12T18:15:33.276Z,83.97
2017-11-12T18:18:01.640Z,83.85
2017-11-12T18:20:30.009Z,83.18
2017-11-12T18:22:59.070Z,83.02
2017-11-12T18:25:28.223Z,83.10
2017-11-12T18:27:56.596Z,83.71
2017-11-12T18:30:24.964Z,83.82
2017-11-12T18:32:53.347Z,83.70
2017-11-12T18:35:21.708Z,83.73
2017-11-12T18:37:50.072Z,84.12
2017-11-12T18:40:19.203Z,83.58
2017-11-12T18:42:47.598Z,83.33
2017-11-12T18:45:15.996Z,84.10
2017-11-12T18:47:44.361Z,84.14
2017-11-12T18:50:12.738Z,84.24
2017-11-12T18:52:41.130Z,84.05
2017-11-12T18:55:12.473Z,83.55
2017-11-12T19:00:51.345Z,83.46
2017-11-12T19:06:46.492Z,83.58
2017-11-12T19:09:17.213Z,83.63
2017-11-12T19:11:46.355Z,83.73
2017-11-12T19:15:42.465Z,83.44
2017-11-12T19:18:10.732Z,83.74
2017-11-12T19:20:40.128Z,83.75
2017-11-12T19:26:13.730Z,83.23
2017-11-12T19:31:45.106Z,84.72
2017-11-12T19:34:12.674Z,84.74
2017-11-12T19:36:41.064Z,84.62
2017-11-12T19:39:08.601Z,85.01
2017-11-12T19:41:36.122Z,84.95
2017-11-12T19:44:03.644Z,85.13
2017-11-12T19:46:31.170Z,84.88
2017-11-12T19:48:58.686Z,84.81
2017-11-12T19:51:26.198Z,84.95
2017-11-12T19:53:53.728Z,85.82
2017-11-12T19:56:21.265Z,85.25
2017-11-12T19:58:48.800Z,85.30
2017-11-12T20:01:16.332Z,85.25
2017-11-12T20:03:43.855Z,86.11
2017-11-12T20:06:11.383Z,86.22
2017-11-12T20:08:38.906Z,86.24
2017-11-12T20:11:06.436Z,85.99
2017-11-12T20:13:33.946Z,86.16
2017-11-12T20:16:01.465Z,86.13
2017-11-12T20:18:29.002Z,86.23
2017-11-12T20:20:56.542Z,85.65
2017-11-12T20:23:24.058Z,85.62
2017-11-12T20:25:51.584Z,86.02
2017-11-12T20:28:19.105Z,86.11
2017-11-12T20:30:46.634Z,85.94
2017-11-12T20:33:14.165Z,86.01
2017-11-12T20:35:41.679Z,86.04
2017-11-12T20:38:09.208Z,85.78
2017-11-12T20:40:36.738Z,85.53
2017-11-12T20:43:04.266Z,85.89
2017-11-12T20:45:31.795Z,85.55
2017-11-12T20:47:59.322Z,85.41
2017-11-12T20:50:26.839Z,85.32
2017-11-12T20:52:54.364Z,85.49
2017-11-12T20:55:21.894Z,85.74
2017-11-12T20:57:49.439Z,86.60
2017-11-12T21:00:16.951Z,86.97
2017-11-12T21:02:44.476Z,86.96
2017-11-12T21:05:12.313Z,86.45
2017-11-12T21:07:39.835Z,86.96
2017-11-12T21:10:07.356Z,87.11
2017-11-12T21:12:34.874Z,86.83
2017-11-12T21:15:02.403Z,86.70
2017-11-12T21:17:30.045Z,86.88
2017-11-12T21:20:03.268Z,86.84
2017-11-12T21:22:32.572Z,86.82
2017-11-12T21:25:00.088Z,86.86
2017-11-12T21:27:28.069Z,87.02
2017-11-12T21:29:56.341Z,87.09
2017-11-12T21:32:23.866Z,87.34
2017-11-12T21:34:52.303Z,87.62
2017-11-12T21:37:22.324Z,88.16
2017-11-12T21:39:49.842Z,87.94
2017-11-12T21:42:17.374Z,88.22
2017-11-12T21:44:44.903Z,88.17
2017-11-12T21:47:12.421Z,87.71
2017-11-12T21:49:39.936Z,87.75
2017-11-12T21:52:07.468Z,87.76
2017-11-12T21:54:34.988Z,88.14
2017-11-12T21:57:02.536Z,88.22
2017-11-12T21:59:30.049Z,88.03
2017-11-12T22:01:57.566Z,88.41
2017-11-12T22:04:25.095Z,88.78
2017-11-12T22:06:52.630Z,88.85
2017-11-12T22:09:20.159Z,89.04
2017-11-12T22:11:47.671Z,88.95
2017-11-12T22:14:15.185Z,89.00
2017-11-12T22:16:42.732Z,88.91
2017-11-12T22:19:10.245Z,89.21
2017-11-12T22:21:37.764Z,89.26
2017-11-12T22:24:05.282Z,89.16
2017-11-12T22:26:32.798Z,89.46
2017-11-12T22:29:00.313Z,89.28
2017-11-12T22:31:27.835Z,88.96
2017-11-12T22:33:55.359Z,89.42
2017-11-12T22:36:22.885Z,89.03
2017-11-12T22:38:50.402Z,89.49
2017-11-12T22:41:17.923Z,89.35
2017-11-12T22:43:45.439Z,89.10
2017-11-12T22:46:12.969Z,89.43
2017-11-12T22:48:40.510Z,88.97
2017-11-12T22:51:08.032Z,89.24
2017-11-12T22:53:35.623Z,89.11
2017-11-12T22:56:03.172Z,89.39
2017-11-12T22:58:30.744Z,88.81
2017-11-12T23:00:58.288Z,89.51
2017-11-12T23:03:25.808Z,89.50
2017-11-12T23:05:53.337Z,89.18
2017-11-12T23:08:20.851Z,89.67
2017-11-12T23:10:48.377Z,90.45
2017-11-12T23:13:15.893Z,90.57
2017-11-12T23:15:43.416Z,90.43
2017-11-12T23:18:11.032Z,90.03
2017-11-12T23:20:38.614Z,90.47
2017-11-12T23:23:06.135Z,90.48
2017-11-12T23:25:33.654Z,90.27
2017-11-12T23:28:01.196Z,90.53
2017-11-12T23:30:28.725Z,90.68
2017-11-12T23:32:56.253Z,90.87
2017-11-12T23:35:23.775Z,90.55
2017-11-12T23:37:51.305Z,90.56
2017-11-12T23:40:18.832Z,90.53
2017-11-12T23:42:46.350Z,90.28
2017-11-12T23:45:13.873Z,90.25
2017-11-12T23:47:41.390Z,90.20
2017-11-12T23:50:08.926Z,90.03
2017-11-12T23:52:36.457Z,90.07
2017-11-12T23:55:03.979Z,90.03
2017-11-12T23:57:31.499Z,90.07
2017-11-12T23:59:59.024Z,89.94
